createdAt,value
2018-12-08T00:00:10.442Z,1.17
2018-12-08T00:02:38.516Z,1.40
2018-12-08T00:05:06.815Z,0.97
2018-12-08T00:07:34.866Z,1.20
2018-12-08T00:10:03.352Z,1.20
2018-12-08T00:12:31.406Z,1.20
2018-12-08T00:14:59.487Z,1.50
2018-12-08T00:17:27.617Z,1.60
2018-12-08T00:19:55.774Z,1.60
2018-12-08T00:22:24.147Z,1.50
2018-12-08T00:24:52.230Z,1.37
2018-12-08T00:27:20.284Z,1.40
2018-12-08T00:29:48.381Z,1.80
2018-12-08T00:32:16.524Z,1.43
2018-12-08T00:34:44.602Z,1.50
2018-12-08T00:44:35.071Z,1.70
2018-12-08T00:47:03.225Z,1.60
2018-12-08T00:49:31.330Z,1.90
2018-12-08T00:51:59.581Z,2.10
2018-12-08T00:54:27.805Z,2.20
2018-12-08T00:56:55.921Z,2.00
2018-12-08T00:59:23.986Z,4.23
2018-12-08T01:01:52.290Z,3.63
2018-12-08T01:04:20.460Z,2.37
2018-12-08T01:06:48.513Z,3.53
2018-12-08T01:09:16.569Z,3.27
2018-12-08T01:11:44.646Z,3.47
2018-12-08T01:14:12.707Z,2.97
2018-12-08T01:16:40.830Z,3.60
2018-12-08T01:19:08.897Z,2.83
2018-12-08T01:21:37.077Z,3.13
2018-12-08T01:24:05.253Z,4.43
2018-12-08T01:26:33.324Z,4.07
2018-12-08T01:29:01.499Z,3.73
2018-12-08T01:31:29.574Z,3.67
2018-12-08T01:33:57.734Z,3.10
2018-12-08T01:36:25.925Z,3.10
2018-12-08T01:38:54.004Z,3.83
2018-12-08T01:41:22.105Z,4.40
2018-12-08T01:43:50.171Z,3.63
2018-12-08T01:46:18.245Z,2.90
2018-12-08T01:48:46.380Z,3.97
2018-12-08T01:51:14.567Z,2.73
2018-12-08T01:53:42.637Z,3.90
2018-12-08T01:56:10.711Z,3.40
2018-12-08T01:58:38.887Z,3.20
2018-12-08T02:01:07.081Z,3.70
2018-12-08T02:03:35.161Z,3.20
2018-12-08T02:06:03.329Z,3.27
2018-12-08T02:08:31.389Z,3.53
2018-12-08T02:10:59.465Z,3.27
2018-12-08T02:13:27.535Z,3.10
2018-12-08T02:15:55.711Z,2.87
2018-12-08T02:18:23.781Z,3.20
2018-12-08T02:20:51.962Z,2.50
2018-12-08T02:23:20.089Z,3.00
2018-12-08T02:25:48.181Z,2.60
2018-12-08T02:28:22.958Z,3.53
2018-12-08T02:30:51.080Z,2.87
2018-12-08T02:33:19.163Z,3.30
2018-12-08T02:35:47.258Z,3.17
2018-12-08T02:38:15.377Z,3.10
2018-12-08T02:40:43.567Z,3.00
2018-12-08T02:43:11.747Z,3.57
2018-12-08T02:45:39.967Z,3.90
2018-12-08T02:48:08.119Z,3.80
2018-12-08T02:50:36.867Z,3.33
2018-12-08T02:53:04.971Z,4.73
2018-12-08T02:55:33.079Z,4.47
2018-12-08T02:58:01.921Z,2.80
2018-12-08T03:00:30.379Z,3.20
2018-12-08T03:02:58.538Z,3.40
2018-12-08T03:05:26.658Z,4.67
2018-12-08T03:07:54.886Z,3.20
2018-12-08T03:10:22.985Z,3.80
2018-12-08T03:12:51.135Z,3.40
2018-12-08T03:15:19.208Z,3.07
2018-12-08T03:17:47.291Z,2.77
2018-12-08T03:20:15.348Z,4.43
2018-12-08T03:22:43.425Z,4.00
2018-12-08T03:25:11.479Z,2.83
2018-12-08T03:27:39.612Z,2.70
2018-12-08T03:30:07.843Z,3.50
2018-12-08T03:32:35.938Z,3.50
2018-12-08T03:35:04.133Z,3.50
2018-12-08T03:37:32.198Z,2.90
2018-12-08T03:40:00.264Z,3.20
2018-12-08T03:42:28.623Z,3.80
2018-12-08T03:44:56.674Z,3.30
2018-12-08T03:47:24.789Z,3.03
2018-12-08T03:49:52.965Z,3.40
2018-12-08T03:52:21.186Z,2.20
2018-12-08T03:54:49.250Z,3.20
2018-12-08T03:57:17.335Z,3.20
2018-12-08T03:59:45.755Z,2.80
2018-12-08T04:02:13.854Z,3.33
2018-12-08T04:04:41.999Z,3.63
2018-12-08T04:07:10.075Z,3.03
2018-12-08T04:09:38.212Z,2.60
2018-12-08T04:12:06.384Z,3.20
2018-12-08T04:14:34.556Z,2.73
2018-12-08T04:17:02.616Z,3.40
2018-12-08T04:19:30.736Z,2.57
2018-12-08T04:21:58.817Z,3.00
2018-12-08T04:24:26.903Z,4.07
2018-12-08T04:26:55.115Z,3.27
2018-12-08T04:29:23.247Z,3.30
2018-12-08T04:31:51.327Z,3.10
2018-12-08T04:34:19.388Z,3.00
2018-12-08T04:36:47.583Z,3.50
2018-12-08T04:39:15.654Z,2.60
2018-12-08T04:41:43.871Z,2.50
2018-12-08T04:44:11.938Z,2.90
2018-12-08T04:46:40.012Z,2.67
2018-12-08T04:49:08.125Z,3.10
2018-12-08T04:51:36.307Z,2.57
2018-12-08T04:54:04.466Z,3.00
2018-12-08T04:56:32.649Z,2.90
2018-12-08T04:59:00.719Z,2.50
2018-12-08T05:01:28.836Z,2.93
2018-12-08T05:03:56.932Z,3.00
2018-12-08T05:06:25.027Z,3.07
2018-12-08T05:08:53.122Z,2.60
2018-12-08T05:11:21.293Z,3.40
2018-12-08T05:13:49.397Z,3.00
2018-12-08T05:16:17.530Z,2.80
2018-12-08T05:18:45.602Z,3.00
2018-12-08T05:21:13.841Z,3.07
2018-12-08T05:23:42.018Z,3.30
2018-12-08T05:26:10.137Z,3.00
2018-12-08T05:28:38.279Z,3.33
2018-12-08T05:31:06.365Z,3.62
2018-12-08T05:33:34.510Z,3.60
2018-12-08T05:36:02.655Z,4.33
2018-12-08T05:38:30.878Z,3.10
2018-12-08T05:40:58.973Z,3.10
2018-12-08T05:43:27.066Z,3.33
2018-12-08T05:45:55.175Z,3.50
2018-12-08T05:48:23.617Z,2.97
2018-12-08T05:50:51.783Z,3.05
2018-12-08T05:53:19.815Z,3.20
2018-12-08T05:55:47.972Z,3.35
2018-12-08T05:58:16.050Z,3.90
2018-12-08T06:00:44.117Z,3.90
2018-12-08T06:03:12.334Z,3.23
2018-12-08T06:14:33.766Z,4.20
2018-12-08T06:20:21.416Z,3.80
2018-12-08T06:22:53.745Z,3.00
2018-12-08T06:25:32.080Z,3.20
2018-12-08T06:28:14.793Z,3.52
2018-12-08T06:52:05.980Z,3.10
2018-12-08T06:57:31.939Z,2.97
2018-12-08T07:00:13.477Z,2.57
2018-12-08T07:02:42.967Z,4.33
2018-12-08T07:08:04.519Z,3.85
2018-12-08T07:13:26.573Z,3.10
2018-12-08T07:16:00.060Z,3.07
2018-12-08T07:21:21.100Z,2.67
2018-12-08T07:23:49.619Z,4.30
2018-12-08T07:29:19.788Z,2.70
2018-12-08T07:31:48.469Z,2.53
2018-12-08T07:34:16.929Z,2.27
2018-12-08T07:40:06.990Z,2.60
2018-12-08T07:45:28.814Z,2.80
2018-12-08T07:50:52.373Z,2.47
2018-12-08T07:53:25.907Z,2.50
2018-12-08T07:59:00.726Z,2.70
2018-12-08T08:04:21.855Z,2.70
2018-12-08T08:23:07.891Z,2.05
2018-12-08T08:25:36.104Z,2.83
2018-12-08T08:28:05.442Z,2.40
2018-12-08T08:30:33.683Z,2.47
2018-12-08T08:33:01.994Z,2.30
2018-12-08T08:35:30.270Z,1.87
2018-12-08T08:37:58.515Z,2.90
2018-12-08T08:40:26.725Z,2.20
2018-12-08T08:42:54.966Z,2.17
2018-12-08T08:45:23.256Z,2.20
2018-12-08T08:47:51.521Z,2.33
2018-12-08T08:50:19.844Z,2.02
2018-12-08T08:52:48.195Z,2.25
2018-12-08T08:55:16.735Z,3.30
2018-12-08T08:57:45.009Z,1.73
2018-12-08T09:00:14.303Z,1.98
2018-12-08T09:02:42.447Z,2.10
2018-12-08T09:05:11.425Z,2.20
2018-12-08T09:07:40.734Z,2.07
2018-12-08T09:10:10.649Z,2.10
2018-12-08T09:12:38.925Z,2.33
2018-12-08T09:15:08.403Z,2.07
2018-12-08T09:17:36.711Z,1.87
2018-12-08T09:23:03.239Z,1.60
2018-12-08T09:29:04.699Z,2.00
2018-12-08T09:31:32.949Z,1.47
2018-12-08T09:34:01.342Z,3.17
2018-12-08T09:36:31.925Z,2.60
2018-12-08T09:44:50.448Z,2.20
2018-12-08T09:50:31.068Z,2.45
2018-12-08T09:53:10.510Z,2.00
